Aviation Digital Data Service (ADDS)

Output produced by METARs form (0211 UTC 24 November 2017)
found at http://www.aviationweather.gov/adds/metars/
 
METAR text: UKKM 240200Z AUTO 16002MPS 3000 BR ///094/// M04/M05 Q1021
Conditions at: UKKM (GOSTOMEL' , UA) observed 0200 UTC 24 November 2017
Temperature: -4.0°C (25°F)
Dewpoint: -5.0°C (23°F) [RH = 93%]
Pressure (altimeter): 30.15 inches Hg (1021.0 mb)
Winds: from the SSE (160 degrees) at 5 MPH (4 knots; 2.1 m/s)
Visibility: 1.86 miles (2.99 km)
Ceiling: unknown
Clouds: missing
Weather: BR  (mist)

METAR text: UKKM 240130Z AUTO 14002MPS 2500 BR ///094/// M05/M05 Q1021
Conditions at: UKKM (GOSTOMEL' , UA) observed 0130 UTC 24 November 2017
Temperature: -5.0°C (23°F)
Dewpoint: -5.0°C (23°F) [RH = 100%]
Pressure (altimeter): 30.15 inches Hg (1021.0 mb)
Winds: from the SE (140 degrees) at 5 MPH (4 knots; 2.1 m/s)
Visibility: 1.55 miles (2.49 km)
Ceiling: unknown
Clouds: missing
Weather: BR  (mist)

METAR text: UKKM 240100Z AUTO 20002MPS 2000 BR ///096/// M05/M05 Q1021
Conditions at: UKKM (GOSTOMEL' , UA) observed 0100 UTC 24 November 2017
Temperature: -5.0°C (23°F)
Dewpoint: -5.0°C (23°F) [RH = 100%]
Pressure (altimeter): 30.15 inches Hg (1021.0 mb)
Winds: from the SSW (200 degrees) at 5 MPH (4 knots; 2.1 m/s)
Visibility: 1.24 miles (2.00 km)
Ceiling: unknown
Clouds: missing
Weather: BR  (mist)

METAR text: UKKM 240030Z AUTO VRB01MPS 2900 BR ///097/// M04/M05 Q1021
Conditions at: UKKM (GOSTOMEL' , UA) observed 0030 UTC 24 November 2017
Temperature: -4.0°C (25°F)
Dewpoint: -5.0°C (23°F) [RH = 93%]
Pressure (altimeter): 30.15 inches Hg (1021.0 mb)
Winds: variable direction winds at 2 MPH (2 knots; 1.0 m/s)
Visibility: 1.80 miles (2.90 km)
Ceiling: unknown
Clouds: missing
Weather: BR  (mist)

METAR text: UKKM 240000Z AUTO 00000MPS 1600 BR ///100/// M04/M04 Q1021
Conditions at: UKKM (GOSTOMEL' , UA) observed 0000 UTC 24 November 2017
Temperature: -4.0°C (25°F)
Dewpoint: -4.0°C (25°F) [RH = 100%]
Pressure (altimeter): 30.15 inches Hg (1021.0 mb)
Winds: calm
Visibility: 0.99 miles (1.59 km)
Ceiling: unknown
Clouds: missing
Weather: BR  (mist)

METAR text: UKKM 232330Z AUTO 18001MPS 1100 BR ///100/// M05/M05 Q1021
Conditions at: UKKM (GOSTOMEL' , UA) observed 2330 UTC 23 November 2017
Temperature: -5.0°C (23°F)
Dewpoint: -5.0°C (23°F) [RH = 100%]
Pressure (altimeter): 30.15 inches Hg (1021.0 mb)
Winds: from the S (180 degrees) at 2 MPH (2 knots; 1.0 m/s)
Visibility: 0.68 miles (1.09 km)
Ceiling: unknown
Clouds: missing
Weather: BR  (mist)

METAR text: UKKM 232300Z AUTO 17002MPS 2600 BR M05/M05 Q1021
Conditions at: UKKM (GOSTOMEL' , UA) observed 2300 UTC 23 November 2017
Temperature: -5.0°C (23°F)
Dewpoint: -5.0°C (23°F) [RH = 100%]
Pressure (altimeter): 30.15 inches Hg (1021.0 mb)
Winds: from the S (170 degrees) at 5 MPH (4 knots; 2.1 m/s)
Visibility: 1.62 miles (2.61 km)
Ceiling: unknown
Clouds: missing
Weather: BR  (mist)

METAR text: UKKM 232230Z AUTO 14001MPS 2400 BR M04/M04 Q1021
Conditions at: UKKM (GOSTOMEL' , UA) observed 2230 UTC 23 November 2017
Temperature: -4.0°C (25°F)
Dewpoint: -4.0°C (25°F) [RH = 100%]
Pressure (altimeter): 30.15 inches Hg (1021.0 mb)
Winds: from the SE (140 degrees) at 2 MPH (2 knots; 1.0 m/s)
Visibility: 1.49 miles (2.40 km)
Ceiling: unknown
Clouds: missing
Weather: BR  (mist)

METAR text: UKKM 232200Z AUTO 15001MPS 2900 BR M04/M04 Q1021
Conditions at: UKKM (GOSTOMEL' , UA) observed 2200 UTC 23 November 2017
Temperature: -4.0°C (25°F)
Dewpoint: -4.0°C (25°F) [RH = 100%]
Pressure (altimeter): 30.15 inches Hg (1021.0 mb)
Winds: from the SSE (150 degrees) at 2 MPH (2 knots; 1.0 m/s)
Visibility: 1.80 miles (2.90 km)
Ceiling: unknown
Clouds: missing
Weather: BR  (mist)

METAR text: UKKM 232130Z AUTO 10001MPS 3700 BR M04/M04 Q1021
Conditions at: UKKM (GOSTOMEL' , UA) observed 2130 UTC 23 November 2017
Temperature: -4.0°C (25°F)
Dewpoint: -4.0°C (25°F) [RH = 100%]
Pressure (altimeter): 30.15 inches Hg (1021.0 mb)
Winds: from the E (100 degrees) at 2 MPH (2 knots; 1.0 m/s)
Visibility: 2.30 miles (3.70 km)
Ceiling: unknown
Clouds: missing
Weather: BR  (mist)

METAR text: UKKM 232100Z AUTO 19002MPS 3500 NCD M04/M04 Q1021
Conditions at: UKKM (GOSTOMEL' , UA) observed 2100 UTC 23 November 2017
Temperature: -4.0°C (25°F)
Dewpoint: -4.0°C (25°F) [RH = 100%]
Pressure (altimeter): 30.15 inches Hg (1021.0 mb)
Winds: from the S (190 degrees) at 5 MPH (4 knots; 2.1 m/s)
Visibility: 2.17 miles (3.49 km)
Ceiling: at least 12,000 feet AGL
Clouds: sky clear below 12,000 feet AGL
Weather: no significant weather observed at this time

METAR text: UKKM 232030Z AUTO 20002MPS 3300 NCD M03/M04 Q1022
Conditions at: UKKM (GOSTOMEL' , UA) observed 2030 UTC 23 November 2017
Temperature: -3.0°C (27°F)
Dewpoint: -4.0°C (25°F) [RH = 93%]
Pressure (altimeter): 30.18 inches Hg (1022.0 mb)
Winds: from the SSW (200 degrees) at 5 MPH (4 knots; 2.1 m/s)
Visibility: 2.05 miles (3.30 km)
Ceiling: at least 12,000 feet AGL
Clouds: sky clear below 12,000 feet AGL
Weather: no significant weather observed at this time

METAR text: UKKM 232000Z AUTO 23002MPS 2600 BR M04/M04 Q1022
Conditions at: UKKM (GOSTOMEL' , UA) observed 2000 UTC 23 November 2017
Temperature: -4.0°C (25°F)
Dewpoint: -4.0°C (25°F) [RH = 100%]
Pressure (altimeter): 30.18 inches Hg (1022.0 mb)
Winds: from the SW (230 degrees) at 5 MPH (4 knots; 2.1 m/s)
Visibility: 1.62 miles (2.61 km)
Ceiling: unknown
Clouds: missing
Weather: BR  (mist)

METAR text: UKKM 231930Z AUTO 20002MPS 3000 BR M04/M04 Q1022
Conditions at: UKKM (GOSTOMEL' , UA) observed 1930 UTC 23 November 2017
Temperature: -4.0°C (25°F)
Dewpoint: -4.0°C (25°F) [RH = 100%]
Pressure (altimeter): 30.18 inches Hg (1022.0 mb)
Winds: from the SSW (200 degrees) at 5 MPH (4 knots; 2.1 m/s)
Visibility: 1.86 miles (2.99 km)
Ceiling: unknown
Clouds: missing
Weather: BR  (mist)

METAR text: UKKM 231900Z AUTO 22002MPS 3200 BR M04/M04 Q1022
Conditions at: UKKM (GOSTOMEL' , UA) observed 1900 UTC 23 November 2017
Temperature: -4.0°C (25°F)
Dewpoint: -4.0°C (25°F) [RH = 100%]
Pressure (altimeter): 30.18 inches Hg (1022.0 mb)
Winds: from the SW (220 degrees) at 5 MPH (4 knots; 2.1 m/s)
Visibility: 1.99 miles (3.20 km)
Ceiling: unknown
Clouds: missing
Weather: BR  (mist)

METAR text: UKKM 231830Z AUTO 17001MPS 4300 NCD M02/M03 Q1022
Conditions at: UKKM (GOSTOMEL' , UA) observed 1830 UTC 23 November 2017
Temperature: -2.0°C (28°F)
Dewpoint: -3.0°C (27°F) [RH = 93%]
Pressure (altimeter): 30.18 inches Hg (1022.0 mb)
Winds: from the S (170 degrees) at 2 MPH (2 knots; 1.0 m/s)
Visibility: 2.67 miles (4.30 km)
Ceiling: at least 12,000 feet AGL
Clouds: sky clear below 12,000 feet AGL
Weather: no significant weather observed at this time

METAR text: UKKM 231800Z AUTO 15002MPS 5000 NCD M02/M03 Q1022
Conditions at: UKKM (GOSTOMEL' , UA) observed 1800 UTC 23 November 2017
Temperature: -2.0°C (28°F)
Dewpoint: -3.0°C (27°F) [RH = 93%]
Pressure (altimeter): 30.18 inches Hg (1022.0 mb)
Winds: from the SSE (150 degrees) at 5 MPH (4 knots; 2.1 m/s)
Visibility: 3 miles (5 km)
Ceiling: at least 12,000 feet AGL
Clouds: sky clear below 12,000 feet AGL
Weather: no significant weather observed at this time

METAR text: UKKM 231730Z AUTO 00000MPS 3400 ///220/// M02/M03 Q1022
Conditions at: UKKM (GOSTOMEL' , UA) observed 1730 UTC 23 November 2017
Temperature: -2.0°C (28°F)
Dewpoint: -3.0°C (27°F) [RH = 93%]
Pressure (altimeter): 30.18 inches Hg (1022.0 mb)
Winds: calm
Visibility: 2.11 miles (3.40 km)
Ceiling: unknown
Clouds: missing
Weather: no significant weather observed at this time

METAR text: UKKM 231700Z AUTO 17001MPS 4500 ///220/// M02/M04 Q1022
Conditions at: UKKM (GOSTOMEL' , UA) observed 1700 UTC 23 November 2017
Temperature: -2.0°C (28°F)
Dewpoint: -4.0°C (25°F) [RH = 86%]
Pressure (altimeter): 30.18 inches Hg (1022.0 mb)
Winds: from the S (170 degrees) at 2 MPH (2 knots; 1.0 m/s)
Visibility: 2.80 miles (4.51 km)
Ceiling: unknown
Clouds: missing
Weather: no significant weather observed at this time

METAR text: UKKM 231630Z 00000MPS 6000 NSC M01/M04 Q1022 R15/710255 NOSIG
Conditions at: UKKM (GOSTOMEL' , UA) observed 1630 UTC 23 November 2017
Temperature: -1.0°C (30°F)
Dewpoint: -4.0°C (25°F) [RH = 80%]
Pressure (altimeter): 30.18 inches Hg (1022.0 mb)
Winds: calm
Visibility: 4 miles (6 km)
Ceiling: at least 12,000 feet AGL
Clouds: sky clear below 12,000 feet AGL
Weather: no significant weather observed at this time

METAR text: UKKM 231600Z 24001MPS 6000 NSC M01/M04 Q1021 R15/710255 NOSIG
Conditions at: UKKM (GOSTOMEL' , UA) observed 1600 UTC 23 November 2017
Temperature: -1.0°C (30°F)
Dewpoint: -4.0°C (25°F) [RH = 80%]
Pressure (altimeter): 30.15 inches Hg (1021.0 mb)
Winds: from the WSW (240 degrees) at 2 MPH (2 knots; 1.0 m/s)
Visibility: 4 miles (6 km)
Ceiling: at least 12,000 feet AGL
Clouds: sky clear below 12,000 feet AGL
Weather: no significant weather observed at this time

METAR text: UKKM 231530Z VRB01MPS CAVOK M02/M04 Q1021 R33/710255 NOSIG
Conditions at: UKKM (GOSTOMEL' , UA) observed 1530 UTC 23 November 2017
Temperature: -2.0°C (28°F)
Dewpoint: -4.0°C (25°F) [RH = 86%]
Pressure (altimeter): 30.15 inches Hg (1021.0 mb)
Winds: variable direction winds at 2 MPH (2 knots; 1.0 m/s)
Visibility: 6 or more miles (10+ km)
Ceiling: ceiling and visibility are OK
Clouds: unknown
Weather: no significant weather observed at this time

METAR text: UKKM 231500Z 00000MPS CAVOK M01/M04 Q1021 R33/710255 NOSIG
Conditions at: UKKM (GOSTOMEL' , UA) observed 1500 UTC 23 November 2017
Temperature: -1.0°C (30°F)
Dewpoint: -4.0°C (25°F) [RH = 80%]
Pressure (altimeter): 30.15 inches Hg (1021.0 mb)
Winds: calm
Visibility: 6 or more miles (10+ km)
Ceiling: ceiling and visibility are OK
Clouds: unknown
Weather: no significant weather observed at this time

METAR text: UKKM 231430Z 00000MPS CAVOK M00/M04 Q1021 R33/710255 NOSIG
Conditions at: UKKM (GOSTOMEL' , UA) observed 1430 UTC 23 November 2017
Temperature: 0.0°C (32°F)
Dewpoint: -4.0°C (25°F) [RH = 74%]
Pressure (altimeter): 30.15 inches Hg (1021.0 mb)
Winds: calm
Visibility: 6 or more miles (10+ km)
Ceiling: ceiling and visibility are OK
Clouds: unknown
Weather: no significant weather observed at this time

METAR text: UKKM 231400Z 29001MPS CAVOK 01/M04 Q1021 R33/710255 NOSIG
Conditions at: UKKM (GOSTOMEL' , UA) observed 1400 UTC 23 November 2017
Temperature: 1.0°C (34°F)
Dewpoint: -4.0°C (25°F) [RH = 69%]
Pressure (altimeter): 30.15 inches Hg (1021.0 mb)
Winds: from the WNW (290 degrees) at 2 MPH (2 knots; 1.0 m/s)
Visibility: 6 or more miles (10+ km)
Ceiling: ceiling and visibility are OK
Clouds: unknown
Weather: no significant weather observed at this time

METAR text: UKKM 231330Z 30002MPS CAVOK 01/M04 Q1021 R33/710255 NOSIG
Conditions at: UKKM (GOSTOMEL' , UA) observed 1330 UTC 23 November 2017
Temperature: 1.0°C (34°F)
Dewpoint: -4.0°C (25°F) [RH = 69%]
Pressure (altimeter): 30.15 inches Hg (1021.0 mb)
Winds: from the WNW (300 degrees) at 5 MPH (4 knots; 2.1 m/s)
Visibility: 6 or more miles (10+ km)
Ceiling: ceiling and visibility are OK
Clouds: unknown
Weather: no significant weather observed at this time

METAR text: UKKM 231300Z 31002MPS CAVOK 02/M04 Q1021 R33/710255 NOSIG
Conditions at: UKKM (GOSTOMEL' , UA) observed 1300 UTC 23 November 2017
Temperature: 2.0°C (36°F)
Dewpoint: -4.0°C (25°F) [RH = 64%]
Pressure (altimeter): 30.15 inches Hg (1021.0 mb)
Winds: from the NW (310 degrees) at 5 MPH (4 knots; 2.1 m/s)
Visibility: 6 or more miles (10+ km)
Ceiling: ceiling and visibility are OK
Clouds: unknown
Weather: no significant weather observed at this time

METAR text: UKKM 231230Z 30003MPS CAVOK 03/M04 Q1021 R33/710255 NOSIG
Conditions at: UKKM (GOSTOMEL' , UA) observed 1230 UTC 23 November 2017
Temperature: 3.0°C (37°F)
Dewpoint: -4.0°C (25°F) [RH = 60%]
Pressure (altimeter): 30.15 inches Hg (1021.0 mb)
Winds: from the WNW (300 degrees) at 7 MPH (6 knots; 3.1 m/s)
Visibility: 6 or more miles (10+ km)
Ceiling: ceiling and visibility are OK
Clouds: unknown
Weather: no significant weather observed at this time

METAR text: UKKM 231200Z 29003MPS 270V340 CAVOK 03/M04 Q1021 R33/710255 NOSIG
Conditions at: UKKM (GOSTOMEL' , UA) observed 1200 UTC 23 November 2017
Temperature: 3.0°C (37°F)
Dewpoint: -4.0°C (25°F) [RH = 60%]
Pressure (altimeter): 30.15 inches Hg (1021.0 mb)
Winds: from the WNW (290 degrees) at 7 MPH (6 knots; 3.1 m/s)
Visibility: 6 or more miles (10+ km)
Ceiling: ceiling and visibility are OK
Clouds: unknown
Weather: no significant weather observed at this time

METAR text: UKKM 231130Z 30003MPS 270V340 CAVOK 02/M05 Q1021 R33/710255 NOSIG
Conditions at: UKKM (GOSTOMEL' , UA) observed 1130 UTC 23 November 2017
Temperature: 2.0°C (36°F)
Dewpoint: -5.0°C (23°F) [RH = 60%]
Pressure (altimeter): 30.15 inches Hg (1021.0 mb)
Winds: from the WNW (300 degrees) at 7 MPH (6 knots; 3.1 m/s)
Visibility: 6 or more miles (10+ km)
Ceiling: ceiling and visibility are OK
Clouds: unknown
Weather: no significant weather observed at this time

METAR text: UKKM 231100Z 31003MPS CAVOK 02/M04 Q1021 R33/710255 NOSIG
Conditions at: UKKM (GOSTOMEL' , UA) observed 1100 UTC 23 November 2017
Temperature: 2.0°C (36°F)
Dewpoint: -4.0°C (25°F) [RH = 64%]
Pressure (altimeter): 30.15 inches Hg (1021.0 mb)
Winds: from the NW (310 degrees) at 7 MPH (6 knots; 3.1 m/s)
Visibility: 6 or more miles (10+ km)
Ceiling: ceiling and visibility are OK
Clouds: unknown
Weather: no significant weather observed at this time

METAR text: UKKM 231030Z 28002MPS 240V320 CAVOK 02/M04 Q1021 R33/710255 NOSIG
Conditions at: UKKM (GOSTOMEL' , UA) observed 1030 UTC 23 November 2017
Temperature: 2.0°C (36°F)
Dewpoint: -4.0°C (25°F) [RH = 64%]
Pressure (altimeter): 30.15 inches Hg (1021.0 mb)
Winds: from the W (280 degrees) at 5 MPH (4 knots; 2.1 m/s)
Visibility: 6 or more miles (10+ km)
Ceiling: ceiling and visibility are OK
Clouds: unknown
Weather: no significant weather observed at this time

METAR text: UKKM 231000Z 31002MPS CAVOK 02/M04 Q1021 R33/710255 NOSIG
Conditions at: UKKM (GOSTOMEL' , UA) observed 1000 UTC 23 November 2017
Temperature: 2.0°C (36°F)
Dewpoint: -4.0°C (25°F) [RH = 64%]
Pressure (altimeter): 30.15 inches Hg (1021.0 mb)
Winds: from the NW (310 degrees) at 5 MPH (4 knots; 2.1 m/s)
Visibility: 6 or more miles (10+ km)
Ceiling: ceiling and visibility are OK
Clouds: unknown
Weather: no significant weather observed at this time

METAR text: UKKM 230930Z 30003MPS CAVOK 02/M04 Q1021 R33/710255 NOSIG
Conditions at: UKKM (GOSTOMEL' , UA) observed 0930 UTC 23 November 2017
Temperature: 2.0°C (36°F)
Dewpoint: -4.0°C (25°F) [RH = 64%]
Pressure (altimeter): 30.15 inches Hg (1021.0 mb)
Winds: from the WNW (300 degrees) at 7 MPH (6 knots; 3.1 m/s)
Visibility: 6 or more miles (10+ km)
Ceiling: ceiling and visibility are OK
Clouds: unknown
Weather: no significant weather observed at this time

METAR text: UKKM 230900Z VRB01MPS CAVOK 01/M03 Q1021 R33/710255 NOSIG
Conditions at: UKKM (GOSTOMEL' , UA) observed 0900 UTC 23 November 2017
Temperature: 1.0°C (34°F)
Dewpoint: -3.0°C (27°F) [RH = 75%]
Pressure (altimeter): 30.15 inches Hg (1021.0 mb)
Winds: variable direction winds at 2 MPH (2 knots; 1.0 m/s)
Visibility: 6 or more miles (10+ km)
Ceiling: ceiling and visibility are OK
Clouds: unknown
Weather: no significant weather observed at this time

METAR text: UKKM 230830Z 00000MPS CAVOK 01/M03 Q1021 R33/710255 NOSIG
Conditions at: UKKM (GOSTOMEL' , UA) observed 0830 UTC 23 November 2017
Temperature: 1.0°C (34°F)
Dewpoint: -3.0°C (27°F) [RH = 75%]
Pressure (altimeter): 30.15 inches Hg (1021.0 mb)
Winds: calm
Visibility: 6 or more miles (10+ km)
Ceiling: ceiling and visibility are OK
Clouds: unknown
Weather: no significant weather observed at this time

METAR text: UKKM 230800Z 00000MPS CAVOK 00/M02 Q1021 R33/710255 NOSIG
Conditions at: UKKM (GOSTOMEL' , UA) observed 0800 UTC 23 November 2017
Temperature: 0.0°C (32°F)
Dewpoint: -2.0°C (28°F) [RH = 86%]
Pressure (altimeter): 30.15 inches Hg (1021.0 mb)
Winds: calm
Visibility: 6 or more miles (10+ km)
Ceiling: ceiling and visibility are OK
Clouds: unknown
Weather: no significant weather observed at this time

METAR text: UKKM 230730Z VRB01MPS 7000 NSC M01/M03 Q1021 R33/710255 NOSIG
Conditions at: UKKM (GOSTOMEL' , UA) observed 0730 UTC 23 November 2017
Temperature: -1.0°C (30°F)
Dewpoint: -3.0°C (27°F) [RH = 86%]
Pressure (altimeter): 30.15 inches Hg (1021.0 mb)
Winds: variable direction winds at 2 MPH (2 knots; 1.0 m/s)
Visibility: 4 miles (7 km)
Ceiling: at least 12,000 feet AGL
Clouds: sky clear below 12,000 feet AGL
Weather: no significant weather observed at this time

METAR text: UKKM 230700Z 26001MPS 7000 NSC M03/M03 Q1021 R33/710255 NOSIG
Conditions at: UKKM (GOSTOMEL' , UA) observed 0700 UTC 23 November 2017
Temperature: -3.0°C (27°F)
Dewpoint: -3.0°C (27°F) [RH = 100%]
Pressure (altimeter): 30.15 inches Hg (1021.0 mb)
Winds: from the W (260 degrees) at 2 MPH (2 knots; 1.0 m/s)
Visibility: 4 miles (7 km)
Ceiling: at least 12,000 feet AGL
Clouds: sky clear below 12,000 feet AGL
Weather: no significant weather observed at this time

METAR text: UKKM 230630Z 00000MPS 6000 NSC M04/M04 Q1021
Conditions at: UKKM (GOSTOMEL' , UA) observed 0630 UTC 23 November 2017
Temperature: -4.0°C (25°F)
Dewpoint: -4.0°C (25°F) [RH = 100%]
Pressure (altimeter): 30.15 inches Hg (1021.0 mb)
Winds: calm
Visibility: 4 miles (6 km)
Ceiling: at least 12,000 feet AGL
Clouds: sky clear below 12,000 feet AGL
Weather: no significant weather observed at this time

METAR text: UKKM 230600Z 00000MPS 6000 NSC M05/M05 Q1021
Conditions at: UKKM (GOSTOMEL' , UA) observed 0600 UTC 23 November 2017
Temperature: -5.0°C (23°F)
Dewpoint: -5.0°C (23°F) [RH = 100%]
Pressure (altimeter): 30.15 inches Hg (1021.0 mb)
Winds: calm
Visibility: 4 miles (6 km)
Ceiling: at least 12,000 feet AGL
Clouds: sky clear below 12,000 feet AGL
Weather: no significant weather observed at this time

METAR text: UKKM 230530Z 25001MPS 5000 BR NSC M06/M06 Q1021
Conditions at: UKKM (GOSTOMEL' , UA) observed 0530 UTC 23 November 2017
Temperature: -6.0°C (21°F)
Dewpoint: -6.0°C (21°F) [RH = 100%]
Pressure (altimeter): 30.15 inches Hg (1021.0 mb)
Winds: from the WSW (250 degrees) at 2 MPH (2 knots; 1.0 m/s)
Visibility: 3 miles (5 km)
Ceiling: at least 12,000 feet AGL
Clouds: sky clear below 12,000 feet AGL
Weather: BR  (mist)

METAR text: UKKM 230500Z 00000MPS 7000 SKC M05/M05 Q1020
Conditions at: UKKM (GOSTOMEL' , UA) observed 0500 UTC 23 November 2017
Temperature: -5.0°C (23°F)
Dewpoint: -5.0°C (23°F) [RH = 100%]
Pressure (altimeter): 30.12 inches Hg (1020.0 mb)
Winds: calm
Visibility: 4 miles (7 km)
Ceiling: at least 12,000 feet AGL
Clouds: clear skies
Weather: no significant weather observed at this time

METAR text: UKKM 230430Z AUTO 27001MPS 8000 NCD M05/M05 Q1020
Conditions at: UKKM (GOSTOMEL' , UA) observed 0430 UTC 23 November 2017
Temperature: -5.0°C (23°F)
Dewpoint: -5.0°C (23°F) [RH = 100%]
Pressure (altimeter): 30.12 inches Hg (1020.0 mb)
Winds: from the W (270 degrees) at 2 MPH (2 knots; 1.0 m/s)
Visibility: 5 miles (8 km)
Ceiling: at least 12,000 feet AGL
Clouds: sky clear below 12,000 feet AGL
Weather: no significant weather observed at this time

METAR text: UKKM 230400Z AUTO 29002MPS 8000 NCD M05/M05 Q1020
Conditions at: UKKM (GOSTOMEL' , UA) observed 0400 UTC 23 November 2017
Temperature: -5.0°C (23°F)
Dewpoint: -5.0°C (23°F) [RH = 100%]
Pressure (altimeter): 30.12 inches Hg (1020.0 mb)
Winds: from the WNW (290 degrees) at 5 MPH (4 knots; 2.1 m/s)
Visibility: 5 miles (8 km)
Ceiling: at least 12,000 feet AGL
Clouds: sky clear below 12,000 feet AGL
Weather: no significant weather observed at this time

METAR text: UKKM 230330Z AUTO 30001MPS 7000 NCD M05/M05 Q1020
Conditions at: UKKM (GOSTOMEL' , UA) observed 0330 UTC 23 November 2017
Temperature: -5.0°C (23°F)
Dewpoint: -5.0°C (23°F) [RH = 100%]
Pressure (altimeter): 30.12 inches Hg (1020.0 mb)
Winds: from the WNW (300 degrees) at 2 MPH (2 knots; 1.0 m/s)
Visibility: 4 miles (7 km)
Ceiling: at least 12,000 feet AGL
Clouds: sky clear below 12,000 feet AGL
Weather: no significant weather observed at this time

METAR text: UKKM 230300Z AUTO 29001MPS 6000 NCD M05/M05 Q1020
Conditions at: UKKM (GOSTOMEL' , UA) observed 0300 UTC 23 November 2017
Temperature: -5.0°C (23°F)
Dewpoint: -5.0°C (23°F) [RH = 100%]
Pressure (altimeter): 30.12 inches Hg (1020.0 mb)
Winds: from the WNW (290 degrees) at 2 MPH (2 knots; 1.0 m/s)
Visibility: 4 miles (6 km)
Ceiling: at least 12,000 feet AGL
Clouds: sky clear below 12,000 feet AGL
Weather: no significant weather observed at this time

METAR text: UKKM 230230Z AUTO 28002MPS 7000 NCD M04/M04 Q1019
Conditions at: UKKM (GOSTOMEL' , UA) observed 0230 UTC 23 November 2017
Temperature: -4.0°C (25°F)
Dewpoint: -4.0°C (25°F) [RH = 100%]
Pressure (altimeter): 30.09 inches Hg (1019.0 mb)
Winds: from the W (280 degrees) at 5 MPH (4 knots; 2.1 m/s)
Visibility: 4 miles (7 km)
Ceiling: at least 12,000 feet AGL
Clouds: sky clear below 12,000 feet AGL
Weather: no significant weather observed at this time

METAR text: UKKM 230200Z AUTO 27001MPS 8000 NCD M05/M05 Q1019
Conditions at: UKKM (GOSTOMEL' , UA) observed 0200 UTC 23 November 2017
Temperature: -5.0°C (23°F)
Dewpoint: -5.0°C (23°F) [RH = 100%]
Pressure (altimeter): 30.09 inches Hg (1019.0 mb)
Winds: from the W (270 degrees) at 2 MPH (2 knots; 1.0 m/s)
Visibility: 5 miles (8 km)
Ceiling: at least 12,000 feet AGL
Clouds: sky clear below 12,000 feet AGL
Weather: no significant weather observed at this time

METAR text: UKKM 230130Z AUTO 25001MPS 7000 NCD M05/M05 Q1019
Conditions at: UKKM (GOSTOMEL' , UA) observed 0130 UTC 23 November 2017
Temperature: -5.0°C (23°F)
Dewpoint: -5.0°C (23°F) [RH = 100%]
Pressure (altimeter): 30.09 inches Hg (1019.0 mb)
Winds: from the WSW (250 degrees) at 2 MPH (2 knots; 1.0 m/s)
Visibility: 4 miles (7 km)
Ceiling: at least 12,000 feet AGL
Clouds: sky clear below 12,000 feet AGL
Weather: no significant weather observed at this time

METAR text: UKKM 230100Z AUTO 26001MPS 6000 NCD M04/M04 Q1019
Conditions at: UKKM (GOSTOMEL' , UA) observed 0100 UTC 23 November 2017
Temperature: -4.0°C (25°F)
Dewpoint: -4.0°C (25°F) [RH = 100%]
Pressure (altimeter): 30.09 inches Hg (1019.0 mb)
Winds: from the W (260 degrees) at 2 MPH (2 knots; 1.0 m/s)
Visibility: 4 miles (6 km)
Ceiling: at least 12,000 feet AGL
Clouds: sky clear below 12,000 feet AGL
Weather: no significant weather observed at this time

METAR text: UKKM 230030Z AUTO 24001MPS 6000 NCD M04/M05 Q1019
Conditions at: UKKM (GOSTOMEL' , UA) observed 0030 UTC 23 November 2017
Temperature: -4.0°C (25°F)
Dewpoint: -5.0°C (23°F) [RH = 93%]
Pressure (altimeter): 30.09 inches Hg (1019.0 mb)
Winds: from the WSW (240 degrees) at 2 MPH (2 knots; 1.0 m/s)
Visibility: 4 miles (6 km)
Ceiling: at least 12,000 feet AGL
Clouds: sky clear below 12,000 feet AGL
Weather: no significant weather observed at this time

METAR text: UKKM 230000Z AUTO 25001MPS 7000 NCD M04/M04 Q1019
Conditions at: UKKM (GOSTOMEL' , UA) observed 0000 UTC 23 November 2017
Temperature: -4.0°C (25°F)
Dewpoint: -4.0°C (25°F) [RH = 100%]
Pressure (altimeter): 30.09 inches Hg (1019.0 mb)
Winds: from the WSW (250 degrees) at 2 MPH (2 knots; 1.0 m/s)
Visibility: 4 miles (7 km)
Ceiling: at least 12,000 feet AGL
Clouds: sky clear below 12,000 feet AGL
Weather: no significant weather observed at this time

METAR text: UKKM 222330Z AUTO 26001MPS 8000 NCD M03/M04 Q1019
Conditions at: UKKM (GOSTOMEL' , UA) observed 2330 UTC 22 November 2017
Temperature: -3.0°C (27°F)
Dewpoint: -4.0°C (25°F) [RH = 93%]
Pressure (altimeter): 30.09 inches Hg (1019.0 mb)
Winds: from the W (260 degrees) at 2 MPH (2 knots; 1.0 m/s)
Visibility: 5 miles (8 km)
Ceiling: at least 12,000 feet AGL
Clouds: sky clear below 12,000 feet AGL
Weather: no significant weather observed at this time

METAR text: UKKM 222300Z AUTO 31001MPS 8000 NCD M03/M04 Q1019
Conditions at: UKKM (GOSTOMEL' , UA) observed 2300 UTC 22 November 2017
Temperature: -3.0°C (27°F)
Dewpoint: -4.0°C (25°F) [RH = 93%]
Pressure (altimeter): 30.09 inches Hg (1019.0 mb)
Winds: from the NW (310 degrees) at 2 MPH (2 knots; 1.0 m/s)
Visibility: 5 miles (8 km)
Ceiling: at least 12,000 feet AGL
Clouds: sky clear below 12,000 feet AGL
Weather: no significant weather observed at this time

METAR text: UKKM 222230Z AUTO 32002MPS 8000 NCD M03/M03 Q1018
Conditions at: UKKM (GOSTOMEL' , UA) observed 2230 UTC 22 November 2017
Temperature: -3.0°C (27°F)
Dewpoint: -3.0°C (27°F) [RH = 100%]
Pressure (altimeter): 30.06 inches Hg (1018.0 mb)
Winds: from the NW (320 degrees) at 5 MPH (4 knots; 2.1 m/s)
Visibility: 5 miles (8 km)
Ceiling: at least 12,000 feet AGL
Clouds: sky clear below 12,000 feet AGL
Weather: no significant weather observed at this time

METAR text: UKKM 222200Z AUTO 33001MPS 8000 ///031/// M02/M03 Q1018
Conditions at: UKKM (GOSTOMEL' , UA) observed 2200 UTC 22 November 2017
Temperature: -2.0°C (28°F)
Dewpoint: -3.0°C (27°F) [RH = 93%]
Pressure (altimeter): 30.06 inches Hg (1018.0 mb)
Winds: from the NNW (330 degrees) at 2 MPH (2 knots; 1.0 m/s)
Visibility: 5 miles (8 km)
Ceiling: unknown
Clouds: missing
Weather: no significant weather observed at this time

METAR text: UKKM 222130Z AUTO 28001MPS 8000 ///031/// M02/M03 Q1018
Conditions at: UKKM (GOSTOMEL' , UA) observed 2130 UTC 22 November 2017
Temperature: -2.0°C (28°F)
Dewpoint: -3.0°C (27°F) [RH = 93%]
Pressure (altimeter): 30.06 inches Hg (1018.0 mb)
Winds: from the W (280 degrees) at 2 MPH (2 knots; 1.0 m/s)
Visibility: 5 miles (8 km)
Ceiling: unknown
Clouds: missing
Weather: no significant weather observed at this time

METAR text: UKKM 222100Z AUTO 32002MPS 9000 ///030/// M02/M03 Q1018
Conditions at: UKKM (GOSTOMEL' , UA) observed 2100 UTC 22 November 2017
Temperature: -2.0°C (28°F)
Dewpoint: -3.0°C (27°F) [RH = 93%]
Pressure (altimeter): 30.06 inches Hg (1018.0 mb)
Winds: from the NW (320 degrees) at 5 MPH (4 knots; 2.1 m/s)
Visibility: 6 miles (9 km)
Ceiling: unknown
Clouds: missing
Weather: no significant weather observed at this time

METAR text: UKKM 222030Z AUTO 02003MPS 350V050 9000 ///029/// M01/M03 Q1018
Conditions at: UKKM (GOSTOMEL' , UA) observed 2030 UTC 22 November 2017
Temperature: -1.0°C (30°F)
Dewpoint: -3.0°C (27°F) [RH = 86%]
Pressure (altimeter): 30.06 inches Hg (1018.0 mb)
Winds: from the NNE (20 degrees) at 7 MPH (6 knots; 3.1 m/s)
Visibility: 6 miles (9 km)
Ceiling: unknown
Clouds: missing
Weather: no significant weather observed at this time

METAR text: UKKM 222000Z AUTO 36002MPS 9000 ///028/// M01/M03 Q1018
Conditions at: UKKM (GOSTOMEL' , UA) observed 2000 UTC 22 November 2017
Temperature: -1.0°C (30°F)
Dewpoint: -3.0°C (27°F) [RH = 86%]
Pressure (altimeter): 30.06 inches Hg (1018.0 mb)
Winds: from the N (360 degrees) at 5 MPH (4 knots; 2.1 m/s)
Visibility: 6 miles (9 km)
Ceiling: unknown
Clouds: missing
Weather: no significant weather observed at this time

METAR text: UKKM 221930Z AUTO 35002MPS 9000 ///025/// M01/M02 Q1018
Conditions at: UKKM (GOSTOMEL' , UA) observed 1930 UTC 22 November 2017
Temperature: -1.0°C (30°F)
Dewpoint: -2.0°C (28°F) [RH = 93%]
Pressure (altimeter): 30.06 inches Hg (1018.0 mb)
Winds: from the N (350 degrees) at 5 MPH (4 knots; 2.1 m/s)
Visibility: 6 miles (9 km)
Ceiling: unknown
Clouds: missing
Weather: no significant weather observed at this time

METAR text: UKKM 221900Z AUTO 34002MPS 8000 ///023/// M01/M02 Q1017
Conditions at: UKKM (GOSTOMEL' , UA) observed 1900 UTC 22 November 2017
Temperature: -1.0°C (30°F)
Dewpoint: -2.0°C (28°F) [RH = 93%]
Pressure (altimeter): 30.03 inches Hg (1017.0 mb)
Winds: from the NNW (340 degrees) at 5 MPH (4 knots; 2.1 m/s)
Visibility: 5 miles (8 km)
Ceiling: unknown
Clouds: missing
Weather: no significant weather observed at this time

METAR text: UKKM 221830Z AUTO 30002MPS 9000 ///022/// M02/M02 Q1017
Conditions at: UKKM (GOSTOMEL' , UA) observed 1830 UTC 22 November 2017
Temperature: -2.0°C (28°F)
Dewpoint: -2.0°C (28°F) [RH = 100%]
Pressure (altimeter): 30.03 inches Hg (1017.0 mb)
Winds: from the WNW (300 degrees) at 5 MPH (4 knots; 2.1 m/s)
Visibility: 6 miles (9 km)
Ceiling: unknown
Clouds: missing
Weather: no significant weather observed at this time

METAR text: UKKM 221800Z AUTO 32002MPS 9000 ///021/// M01/M02 Q1017
Conditions at: UKKM (GOSTOMEL' , UA) observed 1800 UTC 22 November 2017
Temperature: -1.0°C (30°F)
Dewpoint: -2.0°C (28°F) [RH = 93%]
Pressure (altimeter): 30.03 inches Hg (1017.0 mb)
Winds: from the NW (320 degrees) at 5 MPH (4 knots; 2.1 m/s)
Visibility: 6 miles (9 km)
Ceiling: unknown
Clouds: missing
Weather: no significant weather observed at this time

METAR text: UKKM 221730Z AUTO 32002MPS 6000 ///019/// M02/M02 Q1017
Conditions at: UKKM (GOSTOMEL' , UA) observed 1730 UTC 22 November 2017
Temperature: -2.0°C (28°F)
Dewpoint: -2.0°C (28°F) [RH = 100%]
Pressure (altimeter): 30.03 inches Hg (1017.0 mb)
Winds: from the NW (320 degrees) at 5 MPH (4 knots; 2.1 m/s)
Visibility: 4 miles (6 km)
Ceiling: unknown
Clouds: missing
Weather: no significant weather observed at this time

METAR text: UKKM 221700Z AUTO 31001MPS 6000 NCD M01/M02 Q1016
Conditions at: UKKM (GOSTOMEL' , UA) observed 1700 UTC 22 November 2017
Temperature: -1.0°C (30°F)
Dewpoint: -2.0°C (28°F) [RH = 93%]
Pressure (altimeter): 30.00 inches Hg (1016.0 mb)
Winds: from the NW (310 degrees) at 2 MPH (2 knots; 1.0 m/s)
Visibility: 4 miles (6 km)
Ceiling: at least 12,000 feet AGL
Clouds: sky clear below 12,000 feet AGL
Weather: no significant weather observed at this time

METAR text: UKKM 221630Z AUTO 31001MPS 5000 ///060/// M01/M02 Q1016
Conditions at: UKKM (GOSTOMEL' , UA) observed 1630 UTC 22 November 2017
Temperature: -1.0°C (30°F)
Dewpoint: -2.0°C (28°F) [RH = 93%]
Pressure (altimeter): 30.00 inches Hg (1016.0 mb)
Winds: from the NW (310 degrees) at 2 MPH (2 knots; 1.0 m/s)
Visibility: 3 miles (5 km)
Ceiling: unknown
Clouds: missing
Weather: no significant weather observed at this time

METAR text: UKKM 221600Z AUTO 27001MPS 7000 NCD M01/M02 Q1016
Conditions at: UKKM (GOSTOMEL' , UA) observed 1600 UTC 22 November 2017
Temperature: -1.0°C (30°F)
Dewpoint: -2.0°C (28°F) [RH = 93%]
Pressure (altimeter): 30.00 inches Hg (1016.0 mb)
Winds: from the W (270 degrees) at 2 MPH (2 knots; 1.0 m/s)
Visibility: 4 miles (7 km)
Ceiling: at least 12,000 feet AGL
Clouds: sky clear below 12,000 feet AGL
Weather: no significant weather observed at this time

METAR text: UKKM 221530Z AUTO 26001MPS 9000 FEW037/// M00/M02 Q1016
Conditions at: UKKM (GOSTOMEL' , UA) observed 1530 UTC 22 November 2017
Temperature: 0.0°C (32°F)
Dewpoint: -2.0°C (28°F) [RH = 86%]
Pressure (altimeter): 30.00 inches Hg (1016.0 mb)
Winds: from the W (260 degrees) at 2 MPH (2 knots; 1.0 m/s)
Visibility: 6 miles (9 km)
Ceiling: at least 12,000 feet AGL
Clouds: few clouds at 3700 feet AGL
Weather: no significant weather observed at this time

METAR text: UKKM 221500Z 35001MPS CAVOK 00/M02 Q1016 R33/220255 NOSIG
Conditions at: UKKM (GOSTOMEL' , UA) observed 1500 UTC 22 November 2017
Temperature: 0.0°C (32°F)
Dewpoint: -2.0°C (28°F) [RH = 86%]
Pressure (altimeter): 30.00 inches Hg (1016.0 mb)
Winds: from the N (350 degrees) at 2 MPH (2 knots; 1.0 m/s)
Visibility: 6 or more miles (10+ km)
Ceiling: ceiling and visibility are OK
Clouds: unknown
Weather: no significant weather observed at this time

METAR text: UKKM 221430Z 36002MPS CAVOK 01/M01 Q1015 R33/220255 NOSIG
Conditions at: UKKM (GOSTOMEL' , UA) observed 1430 UTC 22 November 2017
Temperature: 1.0°C (34°F)
Dewpoint: -1.0°C (30°F) [RH = 86%]
Pressure (altimeter): 29.97 inches Hg (1015.0 mb)
Winds: from the N (360 degrees) at 5 MPH (4 knots; 2.1 m/s)
Visibility: 6 or more miles (10+ km)
Ceiling: ceiling and visibility are OK
Clouds: unknown
Weather: no significant weather observed at this time